Historical Weather Data

Soule Park Golf Course
1033 East Ojai Ave
Ojai, CA 93023
Date ET
(Inches)
Rain
(Inches)
Temp °F
Humidity
Avg
Wind MPH
Avg
Solar Wm2
Avg
High Ave Low
9/1/18 0.18 0.00 84.5 68.5 53.2 68 2.7 271
9/2/18 0.15 0.00 80.9 67.7 55.9 76 2.2 227
9/3/18 0.15 0.00 85.0 68.7 58.7 76 2.1 217
9/4/18 0.16 0.00 83.1 68.8 59.8 77 2.5 245
9/5/18 0.15 0.00 80.9 67.9 59.8 79 2.5 236
9/6/18 0.17 0.00 85.1 70.1 60.2 74 2.4 245
9/7/18 0.18 0.00 92.6 71.8 54.4 69 1.8 255
9/8/18 0.21 0.00 100.2 77.0 56.9 56 1.9 263
9/9/18 0.20 0.00 95.2 74.9 55.5 53 2.2 265
9/10/18 0.18 0.00 89.5 69.5 54.0 69 1.9 255
9/11/18 0.16 0.00 84.7 67.5 56.2 75 2.3 243
9/12/18 0.15 0.00 84.2 66.7 55.5 77 2.1 220
9/13/18 0.18 0.00 88.6 69.4 53.1 62 2.2 256
9/14/18 0.20 0.00 95.9 72.7 51.0 42 2.1 257
9/15/18 0.19 0.00 89.5 69.4 51.0 49 2.4 253
9/16/18 0.19 0.00 91.2 69.5 49.9 46 1.9 259
9/17/18 0.19 0.00 89.0 68.0 48.1 47 2.2 261
9/18/18 0.18 0.00 87.8 67.0 46.9 55 2.1 255
9/19/18 0.18 0.00 87.2 66.8 47.7 58 2.1 250
9/20/18 0.17 0.00 87.9 67.7 47.5 63 2.1 248
9/21/18 0.16 0.00 87.3 69.3 57.7 74 2.2 231
9/22/18 0.17 0.00 95.2 71.4 53.4 61 1.9 233
9/23/18 0.16 0.00 87.7 68.9 54.5 63 2.2 232
9/24/18 0.13 0.00 81.5 64.0 55.1 79 2.2 212
9/25/18 0.13 0.00 80.9 65.0 54.9 78 2.3 206
9/26/18 0.16 0.00 95.1 69.1 52.0 67 1.7 221
9/27/18 0.17 0.00 96.6 72.0 52.8 62 1.7 227
9/28/18 0.14 0.00 88.6 66.3 54.3 77 2.0 219
9/29/18 0.14 0.00 80.1 66.1 55.1 73 2.1 213
9/30/18 0.16 0.00 88.3 67.6 48.7 60 2.0 225